createdAt,value
2022-11-25T00:01:09.293Z,20.10
2022-11-25T00:03:40.926Z,21.70
2022-11-25T00:08:43.299Z,24.20
2022-11-25T00:11:14.837Z,23.40
2022-11-25T00:13:46.959Z,22.30
2022-11-25T00:16:19.529Z,22.80
2022-11-25T00:18:51.825Z,23.80
2022-11-25T00:21:24.786Z,22.60
2022-11-25T00:23:56.641Z,21.90
2022-11-25T00:26:28.421Z,19.70
2022-11-25T00:31:31.222Z,20.30
2022-11-25T00:34:02.734Z,20.90
2022-11-25T00:36:35.001Z,17.70
2022-11-25T00:39:08.211Z,19.70
2022-11-25T00:41:57.510Z,18.70
2022-11-25T00:44:39.764Z,19.10
2022-11-25T00:47:12.934Z,19.10
2022-11-25T00:49:47.883Z,19.50
2022-11-25T00:52:20.191Z,19.20
2022-11-25T00:54:52.545Z,18.70
2022-11-25T00:57:24.703Z,17.90
2022-11-25T00:59:56.578Z,19.20
2022-11-25T01:02:28.972Z,19.20
2022-11-25T01:05:00.405Z,19.20
2022-11-25T01:07:31.886Z,18.30
2022-11-25T01:12:33.411Z,17.80
2022-11-25T01:15:04.959Z,19.30
2022-11-25T01:17:39.375Z,19.00
2022-11-25T01:20:12.947Z,17.90
2022-11-25T01:22:44.457Z,17.90
2022-11-25T01:25:15.966Z,18.20
2022-11-25T01:27:48.563Z,17.70
2022-11-25T01:30:20.289Z,19.30
2022-11-25T01:35:21.410Z,18.70
2022-11-25T01:37:52.807Z,19.20
2022-11-25T01:40:24.278Z,19.40
2022-11-25T01:42:55.704Z,18.20
2022-11-25T01:45:41.016Z,17.60
2022-11-25T01:48:16.294Z,18.10
2022-11-25T01:50:47.889Z,21.40
2022-11-25T01:53:19.477Z,20.50
2022-11-25T01:55:52.618Z,19.30
2022-11-25T01:58:26.040Z,19.90
2022-11-25T02:00:58.825Z,19.00
2022-11-25T02:06:04.227Z,19.60
2022-11-25T02:08:36.043Z,20.50
2022-11-25T02:11:08.200Z,20.30
2022-11-25T02:16:10.678Z,19.70
2022-11-25T02:21:12.014Z,18.30
2022-11-25T02:23:46.978Z,19.10
2022-11-25T02:26:18.533Z,19.00
2022-11-25T02:28:50.208Z,19.20
2022-11-25T02:31:23.805Z,16.70
2022-11-25T02:33:55.546Z,19.60
2022-11-25T02:36:27.010Z,21.80
2022-11-25T02:39:00.937Z,18.20
2022-11-25T02:41:36.216Z,17.50
2022-11-25T02:44:09.337Z,17.80
2022-11-25T02:49:10.727Z,17.80
2022-11-25T02:51:44.134Z,19.80
2022-11-25T02:54:16.467Z,19.70
2022-11-25T02:56:48.054Z,20.00
2022-11-25T02:59:19.485Z,20.70
2022-11-25T03:04:21.548Z,18.50
2022-11-25T03:06:53.084Z,19.20
2022-11-25T03:09:24.413Z,19.40
2022-11-25T03:14:44.000Z,20.00
2022-11-25T03:17:16.363Z,17.50
2022-11-25T03:19:47.804Z,19.50
2022-11-25T03:22:19.227Z,19.20
2022-11-25T03:24:50.583Z,20.30
2022-11-25T03:27:22.027Z,22.20
2022-11-25T03:32:23.757Z,24.10
2022-11-25T03:34:55.299Z,21.40
2022-11-25T03:39:57.151Z,19.70
2022-11-25T03:44:59.473Z,17.80
2022-11-25T03:50:00.788Z,16.70
2022-11-25T03:55:02.621Z,18.00
2022-11-25T03:57:36.788Z,17.70
2022-11-25T04:00:10.913Z,20.10
2022-11-25T04:03:18.118Z,17.60
2022-11-25T04:08:19.595Z,19.10
2022-11-25T04:10:51.890Z,18.60
2022-11-25T04:13:26.681Z,18.60
2022-11-25T04:15:58.337Z,17.60
2022-11-25T04:18:30.215Z,17.60
2022-11-25T04:21:03.065Z,18.60
2022-11-25T04:23:35.766Z,16.90
2022-11-25T04:26:08.413Z,17.70
2022-11-25T04:28:42.091Z,18.80
2022-11-25T04:31:13.580Z,17.30
2022-11-25T04:33:52.230Z,16.00
2022-11-25T04:36:24.453Z,17.20
2022-11-25T04:38:56.525Z,16.00
2022-11-25T04:43:59.056Z,17.10
2022-11-25T04:46:33.011Z,18.40
2022-11-25T04:49:04.779Z,17.80
2022-11-25T04:51:36.991Z,16.10
2022-11-25T04:54:13.335Z,18.20
2022-11-25T04:56:47.947Z,17.50
2022-11-25T04:59:37.299Z,17.60
2022-11-25T05:02:08.978Z,16.80
2022-11-25T05:04:43.083Z,16.80
2022-11-25T05:07:15.189Z,15.80
2022-11-25T05:09:47.228Z,16.10
2022-11-25T05:12:23.191Z,16.40
2022-11-25T05:14:55.304Z,15.20
2022-11-25T05:17:27.938Z,15.00
2022-11-25T05:19:59.955Z,15.80
2022-11-25T05:22:33.139Z,16.80
2022-11-25T05:25:07.227Z,16.60
2022-11-25T05:27:43.232Z,16.20
2022-11-25T05:30:16.186Z,15.50
2022-11-25T05:32:47.747Z,15.60
2022-11-25T05:35:22.226Z,15.80
2022-11-25T05:37:54.054Z,16.60
2022-11-25T05:40:25.932Z,16.00
2022-11-25T05:43:08.398Z,14.80
2022-11-25T05:45:42.818Z,16.10
2022-11-25T05:48:15.072Z,16.70
2022-11-25T05:50:47.285Z,15.60
2022-11-25T05:53:27.082Z,14.60
2022-11-25T05:55:59.968Z,16.50
2022-11-25T05:58:49.855Z,15.70
2022-11-25T06:01:22.328Z,16.80
2022-11-25T06:03:55.291Z,16.60
2022-11-25T06:06:27.325Z,15.60
2022-11-25T06:08:58.767Z,15.20
2022-11-25T06:11:30.112Z,15.60
2022-11-25T06:14:01.546Z,16.50
2022-11-25T06:19:20.133Z,15.50
2022-11-25T06:21:51.818Z,14.90
2022-11-25T06:26:56.912Z,15.80
2022-11-25T06:29:29.152Z,15.90
2022-11-25T06:32:00.582Z,17.40
2022-11-25T06:34:52.791Z,16.80
2022-11-25T06:37:38.883Z,17.90
2022-11-25T06:40:12.135Z,17.40
2022-11-25T06:42:44.196Z,18.50
2022-11-25T06:45:16.202Z,17.50
2022-11-25T06:47:48.052Z,18.00
2022-11-25T06:50:20.139Z,18.40
2022-11-25T06:55:22.042Z,19.00
2022-11-25T07:00:39.911Z,22.40
2022-11-25T07:03:11.312Z,19.40
2022-11-25T07:05:42.932Z,20.50
2022-11-25T07:08:14.755Z,24.90
2022-11-25T07:10:47.110Z,22.00
2022-11-25T07:13:19.471Z,28.00
2022-11-25T07:15:52.149Z,30.90
2022-11-25T07:18:24.440Z,27.20
2022-11-25T07:20:56.872Z,40.90
2022-11-25T07:23:28.690Z,43.60
2022-11-25T07:26:04.968Z,46.60
2022-11-25T07:28:37.181Z,40.90
2022-11-25T07:34:06.458Z,35.50
2022-11-25T07:36:39.938Z,40.00
2022-11-25T07:39:13.246Z,33.60
2022-11-25T07:41:45.727Z,35.70
2022-11-25T07:44:18.933Z,35.70
2022-11-25T07:47:18.051Z,36.40
2022-11-25T07:49:50.795Z,38.40
2022-11-25T07:52:23.323Z,40.30
2022-11-25T07:54:55.996Z,37.50
2022-11-25T07:57:28.502Z,39.00
2022-11-25T08:00:00.696Z,27.90
2022-11-25T08:02:34.698Z,26.20
2022-11-25T08:05:07.799Z,19.10
2022-11-25T08:07:40.204Z,16.40
2022-11-25T08:12:44.237Z,14.40
2022-11-25T08:15:16.559Z,14.80
2022-11-25T08:17:52.807Z,14.20
2022-11-25T08:20:25.314Z,14.80
2022-11-25T08:22:58.586Z,15.10
2022-11-25T08:25:32.362Z,13.40
2022-11-25T08:28:04.431Z,13.50
2022-11-25T08:30:36.415Z,13.90
2022-11-25T08:33:07.951Z,15.50
2022-11-25T08:35:39.922Z,13.70
2022-11-25T08:38:19.045Z,13.70
2022-11-25T08:40:50.652Z,15.50
2022-11-25T08:43:27.914Z,14.80
2022-11-25T08:46:01.278Z,16.20
2022-11-25T08:48:33.284Z,14.10
2022-11-25T08:51:04.840Z,13.30
2022-11-25T08:53:36.779Z,12.40
2022-11-25T08:56:08.493Z,15.40
2022-11-25T08:58:40.619Z,18.70
2022-11-25T09:01:12.487Z,17.20
2022-11-25T09:03:46.624Z,15.80
2022-11-25T09:06:20.579Z,14.30
2022-11-25T09:08:52.542Z,14.40
2022-11-25T09:13:54.196Z,15.40
2022-11-25T09:19:00.245Z,14.80
2022-11-25T09:21:31.677Z,15.80
2022-11-25T09:24:03.259Z,15.30
2022-11-25T09:26:36.916Z,15.90
2022-11-25T09:29:08.653Z,16.00
2022-11-25T09:31:40.142Z,16.20
2022-11-25T09:36:41.642Z,15.30
2022-11-25T09:39:13.565Z,15.80
2022-11-25T09:45:01.825Z,15.70
2022-11-25T09:47:35.722Z,16.50
2022-11-25T09:50:13.641Z,16.90
2022-11-25T09:52:49.887Z,13.70
2022-11-25T09:55:24.456Z,14.60
2022-11-25T09:58:01.790Z,16.10
2022-11-25T10:00:39.181Z,17.80
2022-11-25T10:03:15.064Z,18.30
2022-11-25T10:05:48.673Z,17.90
2022-11-25T10:08:22.557Z,16.60
2022-11-25T10:10:57.106Z,17.10
2022-11-25T10:13:30.979Z,18.10
2022-11-25T10:16:03.101Z,16.80
2022-11-25T10:18:36.127Z,19.40
2022-11-25T10:21:08.120Z,19.40
2022-11-25T10:23:39.736Z,18.70
2022-11-25T10:28:47.871Z,17.20
2022-11-25T10:31:20.445Z,16.60
2022-11-25T10:33:53.267Z,15.50
2022-11-25T10:36:25.715Z,17.70
2022-11-25T10:38:59.003Z,18.40
2022-11-25T10:41:32.815Z,17.30
2022-11-25T10:44:05.176Z,17.30
2022-11-25T10:47:11.631Z,18.20
2022-11-25T10:49:32.858Z,16.10
2022-11-25T10:52:08.046Z,17.50
2022-11-25T10:54:39.553Z,17.70
2022-11-25T10:57:21.332Z,20.80
2022-11-25T10:59:59.533Z,25.30
2022-11-25T11:02:31.700Z,22.20
2022-11-25T11:05:05.283Z,24.10
2022-11-25T11:07:38.461Z,22.70
2022-11-25T11:10:24.316Z,25.40
2022-11-25T11:12:58.963Z,25.10
2022-11-25T11:15:32.148Z,23.20
2022-11-25T11:18:15.425Z,29.20
2022-11-25T11:20:50.494Z,30.90
2022-11-25T11:23:22.484Z,33.10
2022-11-25T11:26:02.990Z,28.40
2022-11-25T11:28:41.717Z,24.70
2022-11-25T11:31:19.335Z,31.10
2022-11-25T11:34:00.089Z,25.40
2022-11-25T11:36:50.814Z,23.70
2022-11-25T11:39:37.999Z,29.70
2022-11-25T11:42:12.593Z,33.20
2022-11-25T11:44:52.620Z,32.00
2022-11-25T11:47:27.000Z,30.80
2022-11-25T11:50:06.109Z,26.70
2022-11-25T11:52:44.658Z,28.00
2022-11-25T11:55:25.952Z,30.60
2022-11-25T11:58:00.286Z,29.40
2022-11-25T12:00:33.473Z,35.20
2022-11-25T12:03:07.165Z,33.30
2022-11-25T12:05:39.210Z,27.80
2022-11-25T12:08:15.319Z,22.30
2022-11-25T12:10:51.635Z,14.80
2022-11-25T12:13:29.068Z,17.50
2022-11-25T12:16:02.189Z,18.90
2022-11-25T12:18:50.415Z,18.40
2022-11-25T12:21:29.695Z,18.30
2022-11-25T12:24:04.552Z,20.70
2022-11-25T12:26:40.069Z,23.40
2022-11-25T12:29:14.255Z,29.80
2022-11-25T12:31:48.102Z,34.60
2022-11-25T12:34:21.831Z,32.30
2022-11-25T12:36:53.216Z,34.20
2022-11-25T12:39:27.470Z,33.70
2022-11-25T12:42:00.515Z,29.70
2022-11-25T12:44:33.154Z,18.60
2022-11-25T12:47:04.815Z,15.80
2022-11-25T12:49:40.798Z,15.30
2022-11-25T12:52:47.921Z,13.70
2022-11-25T12:55:24.236Z,14.30
2022-11-25T12:58:31.792Z,14.00
2022-11-25T13:01:41.615Z,16.50
2022-11-25T13:04:45.711Z,16.10
2022-11-25T13:07:25.119Z,14.90
2022-11-25T13:10:35.336Z,13.40
2022-11-25T13:13:26.347Z,13.80
2022-11-25T13:15:58.929Z,15.60
2022-11-25T13:18:33.612Z,15.60
2022-11-25T13:21:11.015Z,15.00
2022-11-25T13:23:53.571Z,14.30
2022-11-25T13:27:02.171Z,16.70
2022-11-25T13:30:04.366Z,16.00
2022-11-25T13:32:37.488Z,15.10
2022-11-25T13:35:32.661Z,14.80
2022-11-25T13:38:04.685Z,14.80
2022-11-25T13:40:41.918Z,15.10
2022-11-25T13:43:24.822Z,18.70
2022-11-25T13:45:56.591Z,17.40
2022-11-25T13:51:18.882Z,16.30
2022-11-25T13:53:55.381Z,16.00
2022-11-25T13:56:30.538Z,18.30
2022-11-25T13:59:32.319Z,18.20
2022-11-25T14:02:36.770Z,18.60
2022-11-25T14:05:24.590Z,18.20
2022-11-25T14:08:08.212Z,18.50
2022-11-25T14:10:46.408Z,20.20
2022-11-25T14:13:28.916Z,19.60
2022-11-25T14:16:09.876Z,21.20
2022-11-25T14:21:57.004Z,20.50
2022-11-25T14:24:34.810Z,18.90
2022-11-25T14:27:06.325Z,19.20
2022-11-25T14:29:41.943Z,20.00
2022-11-25T14:32:14.494Z,23.10
2022-11-25T14:34:46.869Z,22.60
2022-11-25T14:37:21.525Z,19.90
2022-11-25T14:39:56.384Z,20.80
2022-11-25T14:42:34.026Z,20.30
2022-11-25T14:45:20.896Z,18.90
2022-11-25T14:47:52.387Z,19.60
2022-11-25T14:50:39.982Z,19.80
2022-11-25T14:53:12.106Z,20.00
2022-11-25T14:58:16.221Z,19.00
2022-11-25T15:00:55.227Z,17.80
2022-11-25T15:03:27.134Z,21.30
2022-11-25T15:05:59.741Z,22.00
2022-11-25T15:08:37.988Z,21.30
2022-11-25T15:11:10.634Z,21.80
2022-11-25T15:13:43.288Z,21.10
2022-11-25T15:16:16.377Z,18.90
2022-11-25T15:18:50.841Z,19.50
2022-11-25T15:21:23.540Z,19.40
2022-11-25T15:23:55.010Z,20.60
2022-11-25T15:26:27.436Z,19.60
2022-11-25T15:28:59.823Z,20.30
2022-11-25T15:31:33.153Z,17.90
2022-11-25T15:34:06.491Z,18.40
2022-11-25T15:36:38.009Z,18.40
2022-11-25T15:39:25.826Z,19.60
2022-11-25T15:41:58.034Z,18.90
2022-11-25T15:44:32.287Z,19.20
2022-11-25T15:47:06.493Z,18.70
2022-11-25T15:49:38.146Z,21.20
2022-11-25T15:52:14.244Z,19.40
2022-11-25T15:54:46.033Z,18.60
2022-11-25T16:00:03.753Z,20.80
2022-11-25T16:02:52.761Z,17.60
2022-11-25T16:05:35.495Z,18.40
2022-11-25T16:08:29.269Z,16.70
2022-11-25T16:11:01.755Z,15.50
2022-11-25T16:13:37.509Z,17.20
2022-11-25T16:16:20.357Z,17.50
2022-11-25T16:19:11.870Z,18.40
2022-11-25T16:21:54.942Z,19.60
2022-11-25T16:24:38.066Z,18.80
2022-11-25T16:27:16.703Z,20.20
2022-11-25T16:29:56.369Z,19.20
2022-11-25T16:32:28.968Z,18.40
2022-11-25T16:35:07.632Z,18.40
2022-11-25T16:37:40.946Z,23.80
2022-11-25T16:40:16.979Z,25.10
2022-11-25T16:42:50.340Z,27.20
2022-11-25T16:45:23.063Z,22.30
2022-11-25T16:47:54.348Z,29.70
2022-11-25T16:50:25.901Z,30.10
2022-11-25T16:52:57.252Z,26.10
2022-11-25T16:55:28.850Z,22.80
2022-11-25T16:58:00.312Z,23.90
2022-11-25T17:00:32.190Z,28.40
2022-11-25T17:05:34.049Z,36.90
2022-11-25T17:08:05.688Z,33.70
2022-11-25T17:13:07.281Z,36.70
2022-11-25T17:18:11.911Z,39.10
2022-11-25T17:20:43.574Z,42.00
2022-11-25T17:23:17.123Z,43.20
2022-11-25T17:25:50.500Z,46.70
2022-11-25T17:28:22.471Z,50.40
2022-11-25T17:30:55.568Z,45.80
2022-11-25T17:33:27.450Z,46.50
2022-11-25T17:38:29.404Z,48.70
2022-11-25T17:41:00.868Z,41.50
2022-11-25T17:46:06.846Z,39.60
2022-11-25T17:51:12.620Z,49.00
2022-11-25T17:53:45.410Z,50.20
2022-11-25T17:56:22.366Z,49.50
2022-11-25T17:58:57.815Z,45.40
2022-11-25T18:01:29.405Z,40.60
2022-11-25T18:06:31.594Z,37.30
2022-11-25T18:09:03.335Z,33.20
2022-11-25T18:14:05.261Z,37.50
2022-11-25T18:19:07.426Z,25.80
2022-11-25T18:21:39.045Z,25.80
2022-11-25T18:26:43.842Z,24.00
2022-11-25T18:29:17.970Z,21.60
2022-11-25T18:31:50.267Z,23.30
2022-11-25T18:34:22.368Z,19.20
2022-11-25T18:36:54.366Z,18.50
2022-11-25T18:39:26.400Z,21.20
2022-11-25T18:42:00.174Z,21.20
2022-11-25T18:44:31.976Z,20.40
2022-11-25T18:49:33.659Z,20.30
2022-11-25T18:52:06.247Z,22.60
2022-11-25T18:54:39.409Z,22.00
2022-11-25T18:57:12.581Z,22.30
2022-11-25T18:59:44.388Z,22.90
2022-11-25T19:02:18.444Z,22.00
2022-11-25T19:04:50.169Z,22.20
2022-11-25T19:07:22.293Z,21.00
2022-11-25T19:09:53.904Z,20.80
2022-11-25T19:12:25.483Z,21.50
2022-11-25T19:14:57.698Z,18.60
2022-11-25T19:17:29.832Z,19.60
2022-11-25T19:20:01.336Z,19.30
2022-11-25T19:22:33.101Z,19.30
2022-11-25T19:27:34.853Z,19.70
2022-11-25T19:32:36.867Z,20.10
2022-11-25T19:37:39.383Z,20.70
2022-11-25T19:40:17.261Z,27.10
2022-11-25T19:42:49.442Z,25.90
2022-11-25T19:45:21.493Z,27.00
2022-11-25T19:47:53.312Z,22.50
2022-11-25T19:50:25.944Z,23.00
2022-11-25T19:52:57.477Z,23.30
2022-11-25T19:55:30.218Z,24.00
2022-11-25T19:58:01.639Z,26.10
2022-11-25T20:00:33.006Z,27.30
2022-11-25T20:03:04.456Z,24.50
2022-11-25T20:05:36.728Z,27.00
2022-11-25T20:08:11.013Z,33.10
2022-11-25T20:10:42.392Z,33.20
2022-11-25T20:13:14.081Z,30.40
2022-11-25T20:15:45.475Z,24.90
2022-11-25T20:18:18.819Z,22.60
2022-11-25T20:20:51.671Z,21.80
2022-11-25T20:23:25.546Z,22.10
2022-11-25T20:25:56.852Z,20.10
2022-11-25T20:28:30.391Z,17.80
2022-11-25T20:31:01.884Z,18.80
2022-11-25T20:33:33.416Z,26.20
2022-11-25T20:36:06.176Z,22.70
2022-11-25T20:38:37.578Z,20.40
2022-11-25T20:41:09.209Z,18.70
2022-11-25T20:43:41.709Z,19.30
2022-11-25T20:46:17.594Z,19.90
2022-11-25T20:48:49.158Z,18.20
2022-11-25T20:51:22.025Z,17.50
2022-11-25T20:53:54.815Z,18.90
2022-11-25T20:56:27.213Z,19.10
2022-11-25T20:58:58.641Z,18.00
2022-11-25T21:01:29.995Z,21.10
2022-11-25T21:04:01.408Z,22.00
2022-11-25T21:06:36.591Z,21.90
2022-11-25T21:09:16.749Z,18.10
2022-11-25T21:11:48.416Z,19.90
2022-11-25T21:14:20.702Z,20.80
2022-11-25T21:16:52.110Z,31.70
2022-11-25T21:19:23.511Z,48.60
2022-11-25T21:21:54.977Z,47.40
2022-11-25T21:24:31.206Z,44.50
2022-11-25T21:27:03.936Z,49.60
2022-11-25T21:29:35.394Z,47.60
2022-11-25T21:34:38.961Z,27.90
2022-11-25T21:37:11.743Z,22.70
2022-11-25T21:39:43.385Z,19.10
2022-11-25T21:44:47.782Z,15.90
2022-11-25T21:47:20.217Z,16.30
2022-11-25T21:49:51.529Z,15.00
2022-11-25T21:52:22.962Z,20.70
2022-11-25T21:54:54.512Z,20.70
2022-11-25T21:57:29.324Z,17.70
2022-11-25T22:00:00.798Z,18.10
2022-11-25T22:02:33.149Z,21.30
2022-11-25T22:05:07.148Z,19.60
2022-11-25T22:07:38.730Z,25.90
2022-11-25T22:10:11.817Z,25.80
2022-11-25T22:12:44.485Z,20.80
2022-11-25T22:15:19.491Z,20.80
2022-11-25T22:17:51.043Z,18.80
2022-11-25T22:20:27.963Z,21.30
2022-11-25T22:22:59.350Z,21.90
2022-11-25T22:25:31.599Z,17.80
2022-11-25T22:28:03.002Z,15.50
2022-11-25T22:30:34.574Z,14.80
2022-11-25T22:33:06.271Z,15.90
2022-11-25T22:35:37.775Z,17.20
2022-11-25T22:38:16.509Z,15.60
2022-11-25T22:40:49.440Z,16.70
2022-11-25T22:43:22.669Z,19.10
2022-11-25T22:45:54.042Z,21.90
2022-11-25T22:48:28.284Z,24.70
2022-11-25T22:50:59.700Z,21.90
2022-11-25T22:53:31.329Z,24.40
2022-11-25T22:56:02.966Z,23.40
2022-11-25T22:58:34.358Z,22.80
2022-11-25T23:01:05.910Z,22.70
2022-11-25T23:03:37.446Z,18.60
2022-11-25T23:06:11.927Z,16.40
2022-11-25T23:08:43.312Z,16.10
2022-11-25T23:11:18.929Z,14.40
2022-11-25T23:13:50.474Z,13.60
2022-11-25T23:16:21.987Z,13.30
2022-11-25T23:18:53.392Z,13.20
2022-11-25T23:21:28.105Z,12.80
2022-11-25T23:23:59.537Z,12.90
2022-11-25T23:26:34.996Z,11.70
2022-11-25T23:29:23.365Z,14.50
2022-11-25T23:31:54.779Z,12.10
2022-11-25T23:34:26.263Z,12.40
2022-11-25T23:36:57.610Z,12.10
2022-11-25T23:39:29.343Z,12.00
2022-11-25T23:44:31.893Z,12.10
2022-11-25T23:47:04.402Z,11.80
2022-11-25T23:49:37.203Z,12.20
2022-11-25T23:52:08.840Z,11.20
2022-11-25T23:54:41.220Z,12.40
2022-11-25T23:57:16.510Z,11.80
2022-11-25T23:59:47.916Z,12.50
